Time;durP1;ratioP1;P1;durP2;ratioP2;P2;SDS_P1;SDS_P2;PMS_P1;PMS_P2;Temp;Humidity;BMP_temperature;BMP_pressure;BME280_temperature;BME280_humidity;BME280_pressure;Samples;Min_cycle;Max_cycle;Signal;HPM_P1;HPM_P2
2021/01/16 00:00:33;;;;;;;21.80;15.80;;;0.10;97.90;;;;;;5136918;27;20206;-38
2021/01/16 00:03:00;;;;;;;26.03;16.43;;;0.10;97.70;;;;;;5133349;27;20453;-37
2021/01/16 00:05:27;;;;;;;24.27;16.77;;;0.10;97.80;;;;;;5139818;27;20436;-38
2021/01/16 00:08:03;;;;;;;23.60;17.17;;;0.10;98.00;;;;;;5139511;27;20408;-36
2021/01/16 00:10:30;;;;;;;23.80;16.80;;;0.10;97.60;;;;;;5133630;27;20428;-37
2021/01/16 00:12:58;;;;;;;24.67;17.20;;;0.00;97.50;;;;;;5138345;27;20413;-37
2021/01/16 00:15:25;;;;;;;21.70;17.00;;;0.10;97.70;;;;;;5138503;27;20456;-38
2021/01/16 00:18:08;;;;;;;24.20;17.50;;;0.10;97.70;;;;;;5139156;27;20452;-38
2021/01/16 00:20:36;;;;;;;24.37;17.53;;;0.00;97.50;;;;;;5119333;27;20524;-38
2021/01/16 00:23:03;;;;;;;26.83;17.70;;;0.00;97.70;;;;;;5119417;28;20457;-38
2021/01/16 00:25:29;;;;;;;22.83;17.30;;;0.00;97.70;;;;;;5138214;27;20536;-38
2021/01/16 00:27:55;;;;;;;24.73;17.80;;;-0.10;97.80;;;;;;5139415;27;20444;-39
2021/01/16 00:30:24;;;;;;;26.23;18.33;;;-0.10;97.80;;;;;;5138814;27;20519;-38
2021/01/16 00:32:50;;;;;;;27.93;17.50;;;-0.10;97.90;;;;;;5127075;27;20425;-37
2021/01/16 00:35:17;;;;;;;21.57;16.87;;;-0.10;98.00;;;;;;5139123;27;20506;-38
2021/01/16 00:37:47;;;;;;;26.50;18.60;;;-0.10;97.90;;;;;;5138270;27;20424;-36
2021/01/16 00:40:16;;;;;;;26.23;18.60;;;-0.10;98.00;;;;;;5138316;27;20493;-37
2021/01/16 00:42:47;;;;;;;24.67;17.63;;;-0.10;98.10;;;;;;5138129;27;20811;-37
2021/01/16 00:45:14;;;;;;;21.90;17.80;;;-0.10;98.10;;;;;;5137127;27;20756;-37
2021/01/16 00:47:41;;;;;;;26.70;17.77;;;-0.10;98.10;;;;;;5137649;27;20405;-37
2021/01/16 00:50:08;;;;;;;26.60;17.93;;;0.00;98.00;;;;;;5137226;27;20494;-36
2021/01/16 00:52:35;;;;;;;27.47;19.50;;;0.00;97.90;;;;;;5137003;27;20820;-37
2021/01/16 00:55:01;;;;;;;28.43;19.50;;;0.00;97.70;;;;;;5137597;27;20849;-38
2021/01/16 00:57:27;;;;;;;26.27;18.47;;;-0.10;97.60;;;;;;5139658;27;20477;-38
2021/01/16 00:59:53;;;;;;;25.73;18.90;;;-0.10;97.80;;;;;;5126161;27;20537;-38
2021/01/16 01:02:20;;;;;;;25.87;18.50;;;-0.10;97.90;;;;;;5124682;27;20206;-38
2021/01/16 01:04:45;;;;;;;24.83;19.07;;;-0.10;97.90;;;;;;5140487;27;20432;-40
2021/01/16 01:07:12;;;;;;;26.27;16.70;;;-0.10;97.90;;;;;;5138851;27;20432;-39
2021/01/16 01:09:38;;;;;;;26.23;17.17;;;-0.10;97.90;;;;;;5138901;27;20437;-38
2021/01/16 01:12:05;;;;;;;31.47;20.30;;;-0.10;98.00;;;;;;5138536;27;20439;-38
2021/01/16 01:14:31;;;;;;;24.63;18.60;;;-0.10;97.90;;;;;;5138752;27;20467;-37
2021/01/16 01:16:57;;;;;;;25.17;18.17;;;-0.20;97.90;;;;;;5138926;27;20875;-38
2021/01/16 01:19:23;;;;;;;25.17;19.17;;;-0.20;98.00;;;;;;5138242;27;20421;-38
2021/01/16 01:21:48;;;;;;;23.17;17.00;;;-0.20;97.90;;;;;;5138697;28;20186;-37
2021/01/16 01:24:14;;;;;;;24.40;16.80;;;-0.10;98.00;;;;;;5139007;28;20191;-37
2021/01/16 01:26:40;;;;;;;28.73;19.70;;;-0.10;97.90;;;;;;5139254;27;20460;-40
2021/01/16 01:29:06;;;;;;;26.53;17.90;;;-0.10;97.90;;;;;;5138944;28;20214;-39
2021/01/16 01:31:32;;;;;;;26.87;18.90;;;-0.10;97.90;;;;;;5147659;28;20182;-38
2021/01/16 01:33:58;;;;;;;26.10;17.63;;;-0.10;97.80;;;;;;5145833;28;20466;-40
2021/01/16 01:36:24;;;;;;;28.70;18.50;;;-0.10;97.80;;;;;;5137593;27;20421;-38
2021/01/16 01:38:50;;;;;;;23.40;17.60;;;-0.10;97.80;;;;;;5136973;27;20588;-38
2021/01/16 01:41:16;;;;;;;23.20;16.57;;;-0.10;97.70;;;;;;5137135;27;20465;-38
2021/01/16 01:43:41;;;;;;;27.80;18.57;;;-0.10;97.70;;;;;;5136527;28;20218;-37
2021/01/16 01:46:07;;;;;;;24.50;17.77;;;-0.10;97.70;;;;;;5137442;28;20182;-38
2021/01/16 01:48:33;;;;;;;27.50;17.67;;;-0.10;97.60;;;;;;5137677;28;20699;-39
2021/01/16 01:51:02;;;;;;;27.43;19.07;;;0.00;97.60;;;;;;5137948;27;20228;-37
2021/01/16 01:53:31;;;;;;;31.77;20.80;;;0.00;97.50;;;;;;5137766;27;20741;-38
2021/01/16 01:55:57;;;;;;;30.40;19.57;;;0.00;97.40;;;;;;5138356;28;20687;-38
2021/01/16 01:58:25;;;;;;;25.00;17.87;;;0.00;97.60;;;;;;5120201;28;20428;-37
2021/01/16 02:00:54;;;;;;;31.10;19.17;;;-0.10;97.40;;;;;;5138863;27;20511;-37
2021/01/16 02:03:22;;;;;;;29.73;19.77;;;-0.10;97.80;;;;;;5138474;27;20460;-37
2021/01/16 02:05:53;;;;;;;25.20;18.10;;;-0.10;97.50;;;;;;5136481;28;20420;-36
2021/01/16 02:08:19;;;;;;;27.53;17.67;;;0.00;97.50;;;;;;5137675;27;20405;-36
2021/01/16 02:10:45;;;;;;;28.43;19.00;;;0.00;97.40;;;;;;5137738;27;20752;-38
2021/01/16 02:13:10;;;;;;;27.70;19.40;;;0.00;97.40;;;;;;5137379;27;20191;-37
2021/01/16 02:15:39;;;;;;;30.87;21.43;;;0.00;97.40;;;;;;5137543;27;20623;-36
2021/01/16 02:18:30;;;;;;;26.60;18.90;;;-0.10;97.30;;;;;;5138932;27;20818;-37
2021/01/16 02:21:00;;;;;;;27.00;18.10;;;-0.10;97.40;;;;;;5142035;27;20701;-37
2021/01/16 02:23:29;;;;;;;29.67;18.87;;;-0.10;97.40;;;;;;5141318;27;20490;-38
2021/01/16 02:26:15;;;;;;;30.57;18.70;;;-0.10;97.40;;;;;;5141831;27;20447;-37
2021/01/16 02:28:58;;;;;;;25.30;18.17;;;-0.10;97.40;;;;;;5141991;27;20431;-38
2021/01/16 02:31:31;;;;;;;25.87;17.20;;;-0.10;97.40;;;;;;5141107;27;20413;-38
2021/01/16 02:33:59;;;;;;;28.53;19.10;;;-0.10;97.50;;;;;;5140717;27;20428;-38
2021/01/16 02:36:34;;;;;;;30.60;18.97;;;-0.10;97.60;;;;;;5141013;27;20825;-38
2021/01/16 02:39:09;;;;;;;32.60;20.97;;;-0.10;97.80;;;;;;5141927;27;20500;-38
2021/01/16 02:41:49;;;;;;;30.93;19.37;;;-0.10;97.80;;;;;;5141833;27;20889;-38
2021/01/16 02:44:37;;;;;;;33.43;20.10;;;-0.10;97.50;;;;;;5141474;27;20432;-37
2021/01/16 02:47:23;;;;;;;31.50;19.20;;;-0.20;97.40;;;;;;5141766;27;20389;-38
2021/01/16 02:50:00;;;;;;;33.27;20.97;;;-0.20;97.60;;;;;;5140486;27;20777;-37
2021/01/16 02:52:28;;;;;;;32.77;20.13;;;-0.20;97.60;;;;;;5141463;27;20940;-38
2021/01/16 02:54:55;;;;;;;31.47;20.47;;;-0.20;97.70;;;;;;5140253;27;20433;-36
2021/01/16 02:57:21;;;;;;;33.20;21.60;;;-0.30;97.70;;;;;;5140637;27;20455;-37
2021/01/16 02:59:47;;;;;;;31.47;21.13;;;-0.40;98.10;;;;;;5141287;27;20496;-37
2021/01/16 03:02:14;;;;;;;33.43;21.07;;;-0.40;98.40;;;;;;5141027;27;20606;-37
2021/01/16 03:04:41;;;;;;;32.77;21.60;;;-0.40;98.60;;;;;;5140643;27;20448;-37
2021/01/16 03:07:11;;;;;;;31.23;19.63;;;-0.50;98.60;;;;;;5141268;27;20404;-36
2021/01/16 03:09:38;;;;;;;32.30;19.80;;;-0.50;98.70;;;;;;5140698;27;20413;-38
2021/01/16 03:12:05;;;;;;;30.90;20.13;;;-0.50;98.80;;;;;;5140389;27;20417;-36
2021/01/16 03:15:02;;;;;;;34.83;23.27;;;-0.50;98.80;;;;;;5140556;27;20429;-37
2021/01/16 03:17:50;;;;;;;35.13;21.43;;;-0.50;98.90;;;;;;5139322;27;20416;-37
2021/01/16 03:20:27;;;;;;;30.20;20.53;;;-0.50;98.90;;;;;;5140424;27;20447;-37
2021/01/16 03:22:55;;;;;;;30.90;20.53;;;-0.50;99.00;;;;;;5140235;27;20954;-36
2021/01/16 03:25:25;;;;;;;33.40;21.57;;;-0.50;99.00;;;;;;5140400;27;20842;-37
2021/01/16 03:27:52;;;;;;;30.97;20.70;;;-0.50;98.90;;;;;;5140860;27;20899;-37
2021/01/16 03:30:18;;;;;;;32.53;20.53;;;-0.40;99.00;;;;;;5140207;27;20430;-36
2021/01/16 03:32:45;;;;;;;33.37;19.03;;;-0.50;98.80;;;;;;5140768;27;20710;-36
2021/01/16 03:35:12;;;;;;;33.83;20.83;;;-0.60;99.00;;;;;;5140234;27;20428;-37
2021/01/16 03:37:39;;;;;;;33.87;21.67;;;-0.50;99.20;;;;;;5140422;27;20497;-37
2021/01/16 03:40:07;;;;;;;30.57;19.83;;;-0.50;99.00;;;;;;5140893;27;20432;-36
2021/01/16 03:42:36;;;;;;;34.90;22.27;;;-0.40;99.10;;;;;;5140542;27;20464;-36
2021/01/16 03:45:09;;;;;;;31.67;21.30;;;-0.50;98.70;;;;;;5140482;27;20679;-36
2021/01/16 03:47:35;;;;;;;31.00;21.10;;;-0.50;99.00;;;;;;5140529;27;20427;-36
2021/01/16 03:50:01;;;;;;;33.07;20.30;;;-0.50;98.80;;;;;;5140161;27;20417;-36
2021/01/16 03:52:35;;;;;;;30.00;20.13;;;-0.40;99.00;;;;;;5139724;27;20758;-37
2021/01/16 03:55:01;;;;;;;37.33;22.13;;;-0.50;98.80;;;;;;5140486;27;20714;-37
2021/01/16 03:57:27;;;;;;;30.23;20.37;;;-0.50;98.90;;;;;;5139981;27;20420;-35
2021/01/16 04:00:04;;;;;;;32.20;20.50;;;-0.50;98.90;;;;;;5139949;27;20455;-36
2021/01/16 04:02:29;;;;;;;30.03;19.23;;;-0.70;98.90;;;;;;5139792;27;20475;-37
2021/01/16 04:04:55;;;;;;;28.70;18.80;;;-0.70;99.00;;;;;;5140292;27;20408;-36
2021/01/16 04:07:21;;;;;;;31.70;19.87;;;-0.70;99.10;;;;;;5140325;27;20187;-35
2021/01/16 04:09:47;;;;;;;34.63;21.37;;;-0.70;99.10;;;;;;5139818;27;20770;-36
2021/01/16 04:12:13;;;;;;;28.03;20.93;;;-0.60;99.20;;;;;;5139506;27;20191;-36
2021/01/16 04:14:39;;;;;;;30.77;21.40;;;-0.50;99.20;;;;;;5139768;27;20187;-36
2021/01/16 04:17:07;;;;;;;31.23;20.23;;;-0.60;99.00;;;;;;5139857;27;20417;-37
2021/01/16 04:19:33;;;;;;;37.20;23.40;;;-0.60;99.00;;;;;;5139954;27;20433;-36
2021/01/16 04:21:59;;;;;;;36.23;21.53;;;-0.60;99.10;;;;;;5139789;27;20424;-35
2021/01/16 04:24:25;;;;;;;30.40;19.90;;;-0.70;99.00;;;;;;5139408;27;20240;-36
2021/01/16 04:26:51;;;;;;;33.77;21.70;;;-0.60;99.10;;;;;;5139869;27;20826;-36
2021/01/16 04:29:17;;;;;;;34.60;19.87;;;-0.70;99.10;;;;;;5139369;27;20417;-37
2021/01/16 04:31:43;;;;;;;34.83;21.53;;;-0.70;99.20;;;;;;5139529;27;20409;-34
2021/01/16 04:34:10;;;;;;;33.77;21.13;;;-0.70;99.00;;;;;;5139592;27;20431;-35
2021/01/16 04:36:36;;;;;;;34.20;21.63;;;-0.80;98.90;;;;;;5139018;27;20190;-37
2021/01/16 04:39:03;;;;;;;31.83;18.93;;;-0.70;99.10;;;;;;5139172;27;20413;-36
2021/01/16 04:41:30;;;;;;;30.77;20.97;;;-0.60;99.20;;;;;;5138549;27;20417;-36
2021/01/16 04:43:56;;;;;;;29.70;19.93;;;-0.60;98.90;;;;;;5139088;27;20486;-37
2021/01/16 04:46:22;;;;;;;32.77;20.93;;;-0.60;98.60;;;;;;5139452;27;20481;-35
2021/01/16 04:48:57;;;;;;;29.67;19.70;;;-0.50;98.80;;;;;;5138123;27;20470;-37
2021/01/16 04:51:24;;;;;;;32.23;20.33;;;-0.50;98.90;;;;;;5139211;27;20416;-37
2021/01/16 04:53:51;;;;;;;27.13;18.33;;;-0.50;98.60;;;;;;5139073;27;20535;-35
2021/01/16 04:56:18;;;;;;;31.03;19.53;;;-0.40;98.60;;;;;;5138225;27;20477;-35
2021/01/16 04:58:43;;;;;;;32.37;20.90;;;-0.40;98.40;;;;;;5139022;27;20424;-37
2021/01/16 05:01:10;;;;;;;32.87;20.80;;;-0.40;98.60;;;;;;5138979;27;20419;-37
2021/01/16 05:03:42;;;;;;;34.83;20.93;;;-0.80;98.30;;;;;;5138704;27;20491;-36
2021/01/16 05:06:12;;;;;;;36.03;21.80;;;-1.00;98.90;;;;;;5138999;27;20525;-35
2021/01/16 05:08:40;;;;;;;33.43;21.00;;;-1.00;99.20;;;;;;5137592;27;20729;-37
2021/01/16 05:11:16;;;;;;;32.70;20.33;;;-1.00;99.90;;;;;;5138942;27;20456;-36
2021/01/16 05:13:46;;;;;;;30.30;19.27;;;-1.00;99.60;;;;;;5138537;27;20503;-36
2021/01/16 05:16:14;;;;;;;31.13;20.47;;;-0.90;99.60;;;;;;5140323;27;20429;-36
2021/01/16 05:18:41;;;;;;;31.90;20.03;;;-0.80;99.50;;;;;;5139480;27;20435;-38
2021/01/16 05:21:09;;;;;;;27.80;19.10;;;-0.70;99.50;;;;;;5139608;27;20434;-37
2021/01/16 05:23:43;;;;;;;26.00;18.87;;;-0.80;99.10;;;;;;5139276;27;20468;-37
2021/01/16 05:26:09;;;;;;;36.90;20.83;;;-0.80;99.20;;;;;;5138825;27;20448;-36
2021/01/16 05:28:35;;;;;;;29.43;19.60;;;-0.70;99.20;;;;;;5138954;28;20427;-38
2021/01/16 05:31:07;;;;;;;30.07;20.40;;;-0.70;99.00;;;;;;5138002;28;20429;-38
2021/01/16 05:33:35;;;;;;;36.63;23.23;;;-0.80;98.70;;;;;;5138937;27;20429;-38
2021/01/16 05:36:03;;;;;;;36.73;21.00;;;-0.80;99.10;;;;;;5138764;27;20416;-36
2021/01/16 05:38:37;;;;;;;33.83;20.53;;;-0.80;98.90;;;;;;5138152;27;20417;-37
2021/01/16 05:41:10;;;;;;;32.77;20.30;;;-0.90;98.80;;;;;;5137014;27;20503;-36
2021/01/16 05:43:37;;;;;;;30.33;20.33;;;-1.00;99.10;;;;;;5120287;28;20536;-37
2021/01/16 05:46:05;;;;;;;33.30;23.30;;;-0.90;99.30;;;;;;5138614;27;20440;-37
2021/01/16 05:48:32;;;;;;;29.80;19.10;;;-0.90;99.10;;;;;;5138730;27;20420;-36
2021/01/16 05:51:00;;;;;;;24.77;18.30;;;-0.90;98.90;;;;;;5137592;27;20718;-34
2021/01/16 05:53:27;;;;;;;29.07;18.50;;;-0.90;99.00;;;;;;5141438;27;20475;-36
2021/01/16 05:55:57;;;;;;;31.30;19.83;;;-1.00;98.90;;;;;;5141285;27;20481;-36
2021/01/16 05:58:35;;;;;;;25.80;16.50;;;-1.10;99.00;;;;;;5142427;27;20428;-37
2021/01/16 06:01:06;;;;;;;28.33;19.90;;;-1.00;99.20;;;;;;5142277;27;20517;-37
2021/01/16 06:03:37;;;;;;;25.67;18.33;;;-1.10;99.00;;;;;;5141676;27;20590;-37
2021/01/16 06:06:09;;;;;;;32.20;19.57;;;-1.20;99.20;;;;;;5140946;27;20473;-36
2021/01/16 06:08:46;;;;;;;27.47;18.67;;;-1.20;99.30;;;;;;5141363;27;20499;-35
2021/01/16 06:11:14;;;;;;;30.53;19.17;;;-1.20;99.20;;;;;;5141250;27;20423;-36
2021/01/16 06:13:42;;;;;;;30.90;20.13;;;-1.20;99.20;;;;;;5136238;27;20433;-36
2021/01/16 06:16:14;;;;;;;26.37;17.90;;;-1.10;99.30;;;;;;5126298;27;20715;-37
2021/01/16 06:18:55;;;;;;;27.80;17.80;;;-1.10;99.20;;;;;;5119381;28;20436;-36
2021/01/16 06:21:27;;;;;;;31.00;20.77;;;-1.00;99.10;;;;;;5120619;28;20414;-37
2021/01/16 06:24:00;;;;;;;30.37;19.67;;;-0.90;99.00;;;;;;5120160;28;20529;-35
2021/01/16 06:26:29;;;;;;;32.37;19.70;;;-0.90;98.90;;;;;;5120044;28;20449;-36
2021/01/16 06:28:59;;;;;;;27.63;17.10;;;-0.80;99.00;;;;;;5119326;28;20425;-35
2021/01/16 06:31:27;;;;;;;27.90;18.37;;;-0.80;98.90;;;;;;5120050;27;20464;-35
2021/01/16 06:33:58;;;;;;;29.13;18.00;;;-0.80;98.50;;;;;;5119991;28;20434;-37
2021/01/16 06:36:32;;;;;;;27.30;18.20;;;-0.80;98.50;;;;;;5119798;28;20421;-37
2021/01/16 06:39:00;;;;;;;27.50;17.50;;;-0.90;98.40;;;;;;5119207;28;20461;-35
2021/01/16 06:41:29;;;;;;;29.77;17.90;;;-0.90;98.20;;;;;;5120148;28;20457;-36
2021/01/16 06:43:56;;;;;;;28.70;19.90;;;-1.00;98.30;;;;;;5119429;28;20465;-36
2021/01/16 06:46:46;;;;;;;28.87;18.60;;;-1.00;98.40;;;;;;5123897;27;20405;-37
2021/01/16 06:49:23;;;;;;;28.70;19.80;;;-1.00;98.60;;;;;;5122348;28;20549;-36
2021/01/16 06:51:54;;;;;;;31.93;20.50;;;-1.00;98.70;;;;;;5122809;27;20468;-37
2021/01/16 06:54:24;;;;;;;29.67;18.50;;;-0.90;98.70;;;;;;5124477;28;20429;-37
2021/01/16 06:57:00;;;;;;;28.23;19.30;;;-0.90;98.70;;;;;;5123302;28;20414;-36
2021/01/16 06:59:27;;;;;;;28.03;16.93;;;-0.90;98.70;;;;;;5122255;28;20429;-37
2021/01/16 07:01:53;;;;;;;29.13;18.83;;;-0.90;98.50;;;;;;5121785;28;20803;-36
2021/01/16 07:04:19;;;;;;;27.47;18.03;;;-0.80;98.10;;;;;;5118822;28;20513;-37
2021/01/16 07:06:46;;;;;;;25.23;17.50;;;-0.80;98.10;;;;;;5118209;28;20413;-36
2021/01/16 07:09:16;;;;;;;27.30;16.93;;;-0.80;98.10;;;;;;5119319;28;20528;-36
2021/01/16 07:11:45;;;;;;;26.00;17.67;;;-0.80;98.10;;;;;;5119808;28;20430;-36
2021/01/16 07:14:11;;;;;;;25.03;17.43;;;-0.80;98.10;;;;;;5118457;28;20413;-37
2021/01/16 07:16:37;;;;;;;27.53;17.40;;;-0.80;98.20;;;;;;5119531;28;20430;-36
2021/01/16 07:19:03;;;;;;;25.97;18.17;;;-0.70;98.40;;;;;;5119760;27;20422;-36
2021/01/16 07:21:29;;;;;;;24.10;17.73;;;-0.70;98.10;;;;;;5120169;28;20194;-36
2021/01/16 07:23:55;;;;;;;25.63;17.60;;;-0.60;98.10;;;;;;5119914;28;20833;-36
2021/01/16 07:26:22;;;;;;;28.97;18.40;;;-0.60;98.20;;;;;;5119139;28;20421;-37
2021/01/16 07:28:51;;;;;;;27.53;18.70;;;-0.60;97.70;;;;;;5119287;28;20172;-37
2021/01/16 07:31:17;;;;;;;28.30;20.17;;;-0.60;97.60;;;;;;5119792;28;20580;-37
2021/01/16 07:33:43;;;;;;;25.83;17.70;;;-0.60;97.60;;;;;;5118609;28;20417;-36
2021/01/16 07:36:12;;;;;;;24.73;17.60;;;-0.60;97.40;;;;;;5119767;28;20494;-37
2021/01/16 07:38:38;;;;;;;26.77;17.77;;;-0.60;97.40;;;;;;5120446;28;20433;-36
2021/01/16 07:41:08;;;;;;;24.67;16.60;;;-0.60;97.80;;;;;;5119251;28;20816;-36
2021/01/16 07:43:45;;;;;;;28.63;18.27;;;-0.60;97.60;;;;;;5120219;28;20856;-37
2021/01/16 07:46:11;;;;;;;24.30;17.77;;;-0.60;97.70;;;;;;5119067;27;20443;-37
2021/01/16 07:48:56;;;;;;;27.47;17.27;;;-0.60;97.90;;;;;;5132853;27;20486;-37
2021/01/16 07:51:30;;;;;;;26.23;17.90;;;-0.60;97.60;;;;;;5131702;27;20425;-37
2021/01/16 07:54:00;;;;;;;23.80;16.47;;;-0.50;97.50;;;;;;5119867;28;20781;-36
2021/01/16 07:56:35;;;;;;;23.23;17.10;;;-0.50;97.40;;;;;;5138559;27;20486;-37
2021/01/16 07:59:13;;;;;;;24.00;17.10;;;-0.50;97.30;;;;;;5120396;27;20695;-37
2021/01/16 08:01:39;;;;;;;25.07;16.80;;;-0.50;97.30;;;;;;5118856;28;20813;-37
2021/01/16 08:04:27;;;;;;;24.77;17.10;;;-0.50;97.30;;;;;;5130830;27;20468;-37
2021/01/16 08:07:10;;;;;;;24.90;17.47;;;-0.40;97.20;;;;;;5119131;28;20215;-38
2021/01/16 08:09:54;;;;;;;23.23;16.03;;;-0.50;96.90;;;;;;5122598;27;20424;-37
2021/01/16 08:12:22;;;;;;;22.33;16.80;;;-0.50;96.80;;;;;;5139735;27;20420;-37
2021/01/16 08:14:48;;;;;;;24.73;17.63;;;-0.50;96.70;;;;;;5135186;27;20838;-37
2021/01/16 08:17:34;;;;;;;25.47;17.40;;;-0.50;96.80;;;;;;5139587;27;20565;-37
2021/01/16 08:20:00;;;;;;;25.47;16.57;;;-0.50;96.80;;;;;;5125027;27;20439;-38
2021/01/16 08:22:37;;;;;;;20.93;15.77;;;-0.40;96.90;;;;;;5139547;27;20849;-37
2021/01/16 08:25:06;;;;;;;27.07;17.23;;;-0.40;96.90;;;;;;5138955;27;20251;-38
2021/01/16 08:27:40;;;;;;;23.97;16.80;;;-0.30;96.90;;;;;;5118194;28;20425;-38
2021/01/16 08:30:06;;;;;;;24.53;16.03;;;-0.20;96.50;;;;;;5123884;27;20439;-37
2021/01/16 08:32:32;;;;;;;26.00;17.53;;;-0.20;95.90;;;;;;5138863;27;20416;-38
2021/01/16 08:35:05;;;;;;;23.57;16.43;;;-0.10;96.10;;;;;;5138837;27;20424;-38
2021/01/16 08:37:32;;;;;;;22.13;14.40;;;0.10;96.40;;;;;;5139073;27;20187;-37
2021/01/16 08:39:59;;;;;;;23.00;16.50;;;0.10;96.00;;;;;;5133729;27;20474;-38
2021/01/16 08:42:28;;;;;;;22.77;17.13;;;0.20;95.70;;;;;;5117967;28;20564;-38
2021/01/16 08:44:56;;;;;;;21.57;15.60;;;0.30;95.40;;;;;;5120756;27;20465;-38
2021/01/16 08:47:23;;;;;;;19.30;14.07;;;0.30;95.10;;;;;;5118149;28;20520;-37
2021/01/16 08:49:49;;;;;;;30.03;15.33;;;0.40;94.80;;;;;;5118373;27;20429;-37
2021/01/16 08:52:34;;;;;;;22.67;16.33;;;0.40;94.60;;;;;;5118108;28;20747;-37
2021/01/16 08:55:02;;;;;;;19.60;14.67;;;0.30;93.40;;;;;;5136178;27;20460;-38
2021/01/16 08:57:32;;;;;;;21.20;13.50;;;0.20;93.40;;;;;;5138310;27;20895;-38
2021/01/16 09:00:24;;;;;;;20.53;14.93;;;0.30;93.40;;;;;;5137592;27;20440;-37
2021/01/16 09:03:08;;;;;;;23.77;15.73;;;0.50;93.70;;;;;;5138356;27;20508;-36
2021/01/16 09:05:35;;;;;;;22.50;16.20;;;0.60;93.30;;;;;;5138204;27;20428;-37
2021/01/16 09:08:03;;;;;;;19.33;14.80;;;0.50;93.00;;;;;;5126137;27;20425;-38
2021/01/16 09:10:31;;;;;;;22.17;15.53;;;0.40;93.10;;;;;;5115972;27;20461;-38
2021/01/16 09:12:59;;;;;;;21.30;14.27;;;0.20;92.90;;;;;;5121625;27;20437;-37
2021/01/16 09:15:26;;;;;;;18.87;14.90;;;0.10;93.40;;;;;;5127802;27;20459;-38
2021/01/16 09:18:13;;;;;;;19.37;15.83;;;0.20;93.50;;;;;;5138203;27;20430;-37
2021/01/16 09:20:47;;;;;;;19.70;14.43;;;0.00;93.10;;;;;;5138727;27;20467;-37
2021/01/16 09:23:19;;;;;;;20.10;13.87;;;0.20;93.20;;;;;;5137590;27;20828;-37
2021/01/16 09:25:53;;;;;;;22.23;14.90;;;0.20;93.00;;;;;;5136857;27;20509;-38
2021/01/16 09:28:51;;;;;;;18.77;14.23;;;0.30;92.80;;;;;;5143355;27;20403;-38
2021/01/16 09:31:23;;;;;;;23.80;16.40;;;0.40;92.90;;;;;;5141403;27;20439;-37
2021/01/16 09:33:59;;;;;;;20.43;14.70;;;0.60;93.00;;;;;;5142312;27;20416;-36
2021/01/16 09:36:42;;;;;;;21.17;14.60;;;0.70;92.60;;;;;;5142338;27;20515;-37
2021/01/16 09:39:18;;;;;;;20.10;14.03;;;0.70;92.50;;;;;;5142640;27;20404;-39
2021/01/16 09:41:48;;;;;;;19.70;13.60;;;0.60;92.30;;;;;;5141376;27;20474;-38
2021/01/16 09:44:15;;;;;;;18.80;15.17;;;0.40;92.40;;;;;;5140838;27;20491;-38
2021/01/16 09:46:42;;;;;;;19.90;14.60;;;0.20;92.50;;;;;;5143593;27;20743;-38
2021/01/16 09:49:10;;;;;;;21.47;15.33;;;0.10;93.20;;;;;;5142526;27;20421;-37
2021/01/16 09:51:37;;;;;;;18.77;13.77;;;0.10;93.70;;;;;;5139583;27;20732;-38
2021/01/16 09:54:15;;;;;;;19.37;14.20;;;0.20;93.40;;;;;;5125049;27;20436;-38
2021/01/16 09:56:49;;;;;;;17.63;14.53;;;0.10;93.60;;;;;;5136354;27;20544;-37
2021/01/16 09:59:24;;;;;;;21.73;14.80;;;0.30;93.50;;;;;;5144124;27;20413;-37
2021/01/16 10:02:11;;;;;;;20.70;15.67;;;0.30;93.50;;;;;;5144056;27;20423;-38
2021/01/16 10:04:42;;;;;;;18.80;13.83;;;0.50;92.70;;;;;;5143341;27;20472;-38
2021/01/16 10:07:12;;;;;;;18.93;15.17;;;0.40;92.60;;;;;;5144152;27;20849;-38
2021/01/16 10:09:46;;;;;;;19.40;14.97;;;0.40;92.80;;;;;;5144294;27;20420;-38
2021/01/16 10:12:34;;;;;;;19.03;13.60;;;0.50;92.80;;;;;;5143700;27;20400;-37
2021/01/16 10:15:05;;;;;;;19.00;15.10;;;0.80;92.70;;;;;;5144454;27;20663;-37
2021/01/16 10:17:35;;;;;;;19.07;13.10;;;0.90;91.60;;;;;;5144369;27;20959;-38
2021/01/16 10:20:05;;;;;;;17.30;13.50;;;1.10;91.60;;;;;;5144232;27;20464;-38
2021/01/16 10:22:33;;;;;;;17.17;11.97;;;1.10;90.40;;;;;;5144910;27;20790;-37
2021/01/16 10:25:00;;;;;;;18.40;12.57;;;0.80;90.30;;;;;;5140494;27;20455;-37
2021/01/16 10:27:54;;;;;;;15.03;12.00;;;1.00;90.80;;;;;;5144881;27;20404;-36
2021/01/16 10:30:25;;;;;;;16.60;12.60;;;1.40;90.20;;;;;;5143696;27;20849;-37
2021/01/16 10:32:52;;;;;;;13.30;11.10;;;1.70;89.30;;;;;;5144294;27;20404;-37
2021/01/16 10:35:29;;;;;;;15.57;11.33;;;1.80;86.40;;;;;;5139424;27;20429;-38
2021/01/16 10:38:01;;;;;;;14.70;12.20;;;2.00;86.20;;;;;;5121744;27;20535;-37
2021/01/16 10:40:29;;;;;;;12.83;10.47;;;2.10;84.80;;;;;;5128924;27;20822;-38
2021/01/16 10:42:59;;;;;;;13.20;10.63;;;1.40;83.40;;;;;;5140220;27;20559;-38
2021/01/16 10:45:32;;;;;;;13.40;10.00;;;1.80;85.20;;;;;;5140877;27;20468;-39
2021/01/16 10:48:16;;;;;;;13.57;9.90;;;2.30;83.00;;;;;;5141026;27;20409;-37
2021/01/16 10:50:44;;;;;;;13.70;10.43;;;2.50;80.70;;;;;;5139794;27;20888;-36
2021/01/16 10:53:10;;;;;;;10.17;8.27;;;3.00;80.00;;;;;;5139657;27;20792;-38
2021/01/16 10:55:56;;;;;;;10.00;7.60;;;4.20;76.60;;;;;;5135042;27;20451;-36
2021/01/16 10:58:28;;;;;;;11.33;8.50;;;5.10;67.30;;;;;;5121811;27;20561;-35
2021/01/16 11:00:59;;;;;;;8.23;6.03;;;5.90;65.60;;;;;;5119999;27;20544;-36
2021/01/16 11:03:30;;;;;;;7.83;6.83;;;7.00;57.80;;;;;;5134942;27;21337;-40
2021/01/16 11:05:58;;;;;;;6.93;5.50;;;7.30;54.00;;;;;;5125792;27;20434;-37
2021/01/16 11:08:28;;;;;;;5.57;4.77;;;7.70;50.10;;;;;;5117620;28;20723;-37
2021/01/16 11:10:55;;;;;;;4.50;3.97;;;8.30;50.00;;;;;;5132377;27;20849;-37
2021/01/16 11:13:30;;;;;;;4.50;3.90;;;10.00;43.80;;;;;;5140177;27;20427;-37
2021/01/16 11:16:12;;;;;;;5.33;4.37;;;9.70;40.50;;;;;;5134799;27;20845;-37
2021/01/16 11:18:38;;;;;;;4.83;4.33;;;8.30;42.10;;;;;;5134545;27;20869;-36
2021/01/16 11:21:06;;;;;;;5.10;4.47;;;6.40;43.70;;;;;;5139321;27;20479;-36
2021/01/16 11:23:47;;;;;;;4.57;4.17;;;7.40;44.80;;;;;;5140209;27;20495;-37
2021/01/16 11:26:14;;;;;;;4.20;3.80;;;8.40;43.40;;;;;;5140128;27;20436;-37
2021/01/16 11:28:55;;;;;;;4.13;3.73;;;10.90;40.30;;;;;;5140514;27;20445;-37
2021/01/16 11:31:26;;;;;;;4.07;3.73;;;12.30;36.90;;;;;;5138411;27;20756;-39
2021/01/16 11:34:08;;;;;;;4.50;4.10;;;12.00;33.80;;;;;;5139059;27;20419;-37
2021/01/16 11:36:56;;;;;;;5.03;4.43;;;13.40;35.90;;;;;;5137881;27;20501;-38
2021/01/16 11:39:49;;;;;;;5.40;4.77;;;14.60;32.50;;;;;;5139609;27;20437;-37
2021/01/16 11:42:16;;;;;;;4.50;4.10;;;14.10;32.60;;;;;;5139872;27;20409;-40
2021/01/16 11:44:51;;;;;;;4.30;3.90;;;14.80;33.60;;;;;;5139437;27;20442;-37
2021/01/16 11:47:17;;;;;;;3.70;3.40;;;15.90;31.10;;;;;;5140055;27;20748;-38
2021/01/16 11:49:44;;;;;;;4.20;3.80;;;17.00;30.00;;;;;;5139280;27;20428;-38
2021/01/16 11:52:13;;;;;;;4.00;3.60;;;14.20;28.60;;;;;;5138810;27;20460;-38
2021/01/16 11:54:40;;;;;;;4.60;4.20;;;14.20;30.00;;;;;;5139148;27;20698;-37
2021/01/16 11:57:14;;;;;;;4.10;3.70;;;15.30;30.00;;;;;;5138838;27;20896;-37
2021/01/16 11:59:41;;;;;;;3.90;3.53;;;15.20;29.20;;;;;;5140429;27;20420;-38
2021/01/16 12:02:13;;;;;;;4.83;4.07;;;14.40;29.00;;;;;;5137020;27;20421;-38
2021/01/16 12:04:44;;;;;;;3.30;3.00;;;9.50;31.60;;;;;;5118833;27;20458;-37
2021/01/16 12:07:18;;;;;;;4.37;3.97;;;10.20;32.90;;;;;;5130642;27;20425;-38
2021/01/16 12:09:45;;;;;;;5.00;4.00;;;10.50;33.00;;;;;;5131445;27;20492;-38
2021/01/16 12:12:12;;;;;;;4.60;4.10;;;11.20;32.40;;;;;;5117353;28;20453;-38
2021/01/16 12:14:40;;;;;;;4.40;4.00;;;12.80;32.30;;;;;;5126137;27;20436;-38
2021/01/16 12:17:10;;;;;;;4.17;3.87;;;11.40;31.50;;;;;;5137888;27;20420;-38
2021/01/16 12:19:37;;;;;;;4.27;3.87;;;12.40;32.30;;;;;;5136492;27;20456;-38
2021/01/16 12:22:12;;;;;;;4.33;3.93;;;12.30;31.80;;;;;;5140187;27;20436;-38
2021/01/16 12:24:38;;;;;;;4.63;4.23;;;12.20;31.80;;;;;;5138867;27;20431;-38
2021/01/16 12:27:05;;;;;;;7.30;4.93;;;11.40;32.10;;;;;;5139172;27;20694;-38
2021/01/16 12:29:42;;;;;;;4.90;4.00;;;8.90;33.90;;;;;;5132361;27;20435;-38
2021/01/16 12:32:14;;;;;;;5.37;4.87;;;7.30;37.00;;;;;;5137971;27;20450;-37
2021/01/16 12:34:49;;;;;;;5.40;4.67;;;5.20;39.70;;;;;;5147695;27;20437;-37
2021/01/16 12:37:36;;;;;;;4.97;4.20;;;5.00;41.90;;;;;;5119238;27;20425;-37
2021/01/16 12:40:05;;;;;;;6.20;4.50;;;5.00;42.70;;;;;;5134965;27;20485;-36
2021/01/16 12:42:34;;;;;;;5.70;4.67;;;4.50;43.50;;;;;;5138965;27;20472;-37
2021/01/16 12:45:24;;;;;;;7.10;5.30;;;3.70;44.70;;;;;;5138719;27;20431;-37
2021/01/16 12:47:54;;;;;;;5.53;5.03;;;3.50;46.90;;;;;;5123369;27;20458;-37
2021/01/16 12:50:24;;;;;;;8.60;6.23;;;2.50;48.40;;;;;;5137604;27;20432;-37